Time;durP1;ratioP1;P1;durP2;ratioP2;P2;SDS_P1;SDS_P2;PMS_P1;PMS_P2;Temp;Humidity;BMP_temperature;BMP_pressure;BME280_temperature;BME280_humidity;BME280_pressure;Samples;Min_cycle;Max_cycle;Signal;HPM_P1;HPM_P2
2022/06/15 00:01:28;;;;;;;9.13;6.75;;;22.40;99.90;;;;;;6205668;23;20008;-93
2022/06/15 00:03:56;;;;;;;9.15;7.10;;;22.40;99.90;;;;;;6206641;23;20012;-92
2022/06/15 00:06:27;;;;;;;8.38;6.65;;;22.40;99.90;;;;;;6209087;23;20008;-93
2022/06/15 00:08:57;;;;;;;9.57;6.90;;;22.40;99.90;;;;;;6224138;23;20022;-92
2022/06/15 00:11:31;;;;;;;9.45;7.38;;;22.40;99.90;;;;;;6202998;23;20008;-93
2022/06/15 00:14:03;;;;;;;7.57;6.47;;;22.30;99.90;;;;;;6205409;23;20008;-93
2022/06/15 00:16:30;;;;;;;7.22;6.50;;;22.30;99.90;;;;;;6204210;23;20004;-93
2022/06/15 00:18:57;;;;;;;9.10;6.97;;;22.30;99.90;;;;;;6204222;22;20032;-92
2022/06/15 00:21:26;;;;;;;10.98;7.20;;;22.20;99.90;;;;;;6202754;23;20441;-92
2022/06/15 00:23:52;;;;;;;8.13;7.13;;;22.20;99.90;;;;;;6204705;23;20000;-92
2022/06/15 00:26:19;;;;;;;8.95;7.18;;;22.10;99.90;;;;;;6223204;23;20016;-92
2022/06/15 00:28:46;;;;;;;8.25;6.80;;;22.10;99.90;;;;;;6225594;23;20071;-92
2022/06/15 00:31:13;;;;;;;8.27;6.90;;;22.10;99.90;;;;;;6197134;23;20008;-93
2022/06/15 00:33:40;;;;;;;8.07;7.10;;;22.10;99.90;;;;;;6199881;23;20012;-92
2022/06/15 00:36:13;;;;;;;9.23;7.03;;;22.10;99.90;;;;;;6197925;23;20074;-93
2022/06/15 00:38:44;;;;;;;8.30;6.35;;;22.00;99.90;;;;;;6198177;23;20011;-93
2022/06/15 00:41:15;;;;;;;7.97;6.43;;;22.00;99.90;;;;;;6198022;23;20041;-92
2022/06/15 00:43:52;;;;;;;8.93;6.20;;;22.00;99.90;;;;;;6199257;23;20004;-93
2022/06/15 00:46:39;;;;;;;7.07;6.38;;;22.00;99.90;;;;;;6195837;23;20012;-92
2022/06/15 00:49:26;;;;;;;6.88;6.18;;;22.00;99.90;;;;;;6191560;23;20027;-92
2022/06/15 00:52:18;;;;;;;8.93;6.60;;;22.00;99.90;;;;;;6191628;23;20518;-93
2022/06/15 00:54:49;;;;;;;9.20;6.32;;;22.00;99.90;;;;;;6183430;23;20013;-93
2022/06/15 00:57:17;;;;;;;7.55;6.68;;;21.90;99.90;;;;;;6192145;23;20013;-92
2022/06/15 00:59:55;;;;;;;8.25;6.47;;;21.90;99.90;;;;;;6192208;23;20032;-92
2022/06/15 01:02:28;;;;;;;12.60;6.97;;;21.90;99.90;;;;;;6192976;23;20023;-92
2022/06/15 01:04:57;;;;;;;9.63;6.77;;;21.90;99.90;;;;;;6194696;23;20011;-92
2022/06/15 01:07:50;;;;;;;9.40;6.57;;;21.80;99.90;;;;;;6206388;23;20005;-93
2022/06/15 01:10:25;;;;;;;8.75;6.70;;;21.70;99.90;;;;;;6201779;23;20009;-92
2022/06/15 01:13:21;;;;;;;8.10;6.55;;;21.70;99.90;;;;;;6163214;23;20005;-92
2022/06/15 01:15:55;;;;;;;7.60;6.15;;;21.70;99.90;;;;;;6140704;23;20017;-93
2022/06/15 01:18:45;;;;;;;8.77;7.65;;;21.70;99.90;;;;;;6140450;23;20056;-93
2022/06/15 01:21:45;;;;;;;6.80;6.15;;;21.70;99.90;;;;;;6112948;23;20113;-93
2022/06/15 01:24:45;;;;;;;10.57;7.28;;;21.60;99.90;;;;;;6136841;23;20010;-92
2022/06/15 01:27:30;;;;;;;13.20;7.45;;;21.50;99.90;;;;;;6136099;23;20025;-93
2022/06/15 01:29:59;;;;;;;;;;;21.50;99.90;;;;;;6135549;23;20026;-92
2022/06/15 01:32:56;;;;;;;10.13;7.35;;;21.40;99.90;;;;;;6156282;23;19907;-94
2022/06/15 01:35:25;;;;;;;10.55;7.63;;;21.40;99.90;;;;;;6127937;23;20037;-92
2022/06/15 01:38:21;;;;;;;8.57;7.05;;;21.40;99.90;;;;;;6106312;23;20005;-92
2022/06/15 01:41:05;;;;;;;9.38;7.47;;;21.40;99.90;;;;;;6130527;23;20033;-92
2022/06/15 01:43:41;;;;;;;9.77;7.25;;;21.20;99.90;;;;;;6131097;23;20053;-92
2022/06/15 01:46:09;;;;;;;13.48;7.70;;;21.10;99.90;;;;;;6130790;23;20009;-92
2022/06/15 01:48:41;;;;;;;11.38;7.47;;;21.10;99.90;;;;;;6126598;23;20013;-92
2022/06/15 01:51:18;;;;;;;10.67;7.53;;;21.10;99.90;;;;;;6203010;23;20096;-92
2022/06/15 01:54:10;;;;;;;9.98;7.30;;;21.10;99.90;;;;;;6197090;23;20258;-92
2022/06/15 01:56:48;;;;;;;9.80;6.97;;;21.10;99.90;;;;;;6199460;23;20005;-93
2022/06/15 02:00:04;;;;;;;10.40;7.20;;;21.10;99.90;;;;;;6194404;23;20005;-92
2022/06/15 02:02:40;;;;;;;10.40;7.10;;;21.20;99.90;;;;;;6214294;23;20020;-92
2022/06/15 02:05:13;;;;;;;10.32;7.38;;;21.10;99.90;;;;;;6192887;23;20054;-92
2022/06/15 02:07:51;;;;;;;8.23;7.17;;;21.10;99.90;;;;;;6192163;23;20043;-93
2022/06/15 02:10:40;;;;;;;10.77;7.28;;;21.10;99.90;;;;;;6192302;23;20009;-92
2022/06/15 02:13:23;;;;;;;14.77;7.22;;;20.90;99.90;;;;;;6161420;23;20055;-92
2022/06/15 02:15:59;;;;;;;9.27;7.15;;;20.90;99.90;;;;;;6137093;23;20009;-93
2022/06/15 02:18:29;;;;;;;11.15;6.93;;;21.00;99.90;;;;;;6163016;23;20013;-93
2022/06/15 02:21:04;;;;;;;9.20;6.63;;;21.00;99.90;;;;;;6164252;23;20080;-92
2022/06/15 02:23:38;;;;;;;8.77;6.70;;;21.00;99.90;;;;;;6141139;23;20059;-92
2022/06/15 02:26:09;;;;;;;8.07;6.47;;;21.00;99.90;;;;;;6161438;23;20028;-93
2022/06/15 02:28:47;;;;;;;9.07;6.22;;;20.90;99.90;;;;;;6138037;23;20064;-92
2022/06/15 02:31:14;;;;;;;7.32;5.93;;;20.90;99.90;;;;;;6137157;23;20036;-92
2022/06/15 02:33:53;;;;;;;8.13;5.95;;;20.90;99.90;;;;;;6161206;23;20005;-92
2022/06/15 02:36:23;;;;;;;8.73;6.22;;;20.90;99.90;;;;;;6142782;23;20084;-93
2022/06/15 02:38:51;;;;;;;9.18;6.25;;;20.90;99.90;;;;;;6166756;23;20001;-91
2022/06/15 02:41:21;;;;;;;8.90;6.30;;;20.80;99.90;;;;;;6163904;23;20008;-93
2022/06/15 02:43:57;;;;;;;8.93;6.68;;;20.80;99.90;;;;;;6166256;23;20008;-93
2022/06/15 02:46:27;;;;;;;8.55;6.55;;;20.80;99.90;;;;;;6192361;23;20088;-92
2022/06/15 02:48:56;;;;;;;7.93;5.95;;;20.70;99.90;;;;;;6192357;23;20021;-93
2022/06/15 02:51:46;;;;;;;6.38;5.78;;;20.60;99.90;;;;;;6192128;23;20012;-92
2022/06/15 02:54:28;;;;;;;9.23;5.85;;;20.60;99.90;;;;;;6192408;23;20315;-92
2022/06/15 02:57:03;;;;;;;9.40;5.60;;;20.60;99.90;;;;;;6193386;23;20019;-92
2022/06/15 02:59:32;;;;;;;8.95;5.70;;;20.50;99.90;;;;;;6192205;23;20031;-92
2022/06/15 03:02:02;;;;;;;8.40;5.78;;;20.60;99.90;;;;;;6192111;23;20047;-92
2022/06/15 03:04:34;;;;;;;8.10;6.00;;;20.50;99.90;;;;;;6192065;23;20005;-92
2022/06/15 03:07:04;;;;;;;9.48;6.15;;;20.50;99.90;;;;;;6192451;23;20013;-92
2022/06/15 03:09:32;;;;;;;8.35;5.85;;;20.40;99.90;;;;;;6193249;23;20009;-93
2022/06/15 03:11:59;;;;;;;7.95;5.20;;;20.50;99.90;;;;;;6192078;23;20028;-92
2022/06/15 03:14:34;;;;;;;5.95;5.43;;;20.50;99.90;;;;;;6195471;23;20016;-92
2022/06/15 03:17:04;;;;;;;10.38;5.85;;;20.50;99.90;;;;;;6197231;23;20091;-92
2022/06/15 03:19:56;;;;;;;11.90;6.03;;;20.50;99.90;;;;;;6211845;23;20005;-93
2022/06/15 03:22:23;;;;;;;7.60;5.25;;;20.50;99.90;;;;;;6206822;23;20019;-93
2022/06/15 03:24:59;;;;;;;11.73;6.03;;;20.50;99.90;;;;;;6237744;23;20021;-93
2022/06/15 03:27:32;;;;;;;9.00;5.10;;;20.50;99.90;;;;;;6205257;23;20017;-92
2022/06/15 03:30:08;;;;;;;8.18;5.07;;;20.60;99.90;;;;;;6188181;23;20001;-92
2022/06/15 03:33:06;;;;;;;6.57;5.03;;;20.60;99.90;;;;;;6238837;23;20032;-93
2022/06/15 03:35:45;;;;;;;6.90;4.78;;;20.60;99.90;;;;;;6212491;23;20005;-93
2022/06/15 03:38:30;;;;;;;9.18;5.43;;;20.60;99.90;;;;;;6216224;22;20087;-92
2022/06/15 03:41:25;;;;;;;6.40;5.60;;;20.70;99.90;;;;;;6212664;23;20024;-93
2022/06/15 03:44:12;;;;;;;6.53;4.95;;;20.80;99.90;;;;;;6218328;23;20023;-92
2022/06/15 03:46:42;;;;;;;5.95;5.03;;;20.70;99.90;;;;;;6191580;23;20008;-92
2022/06/15 03:49:27;;;;;;;5.30;4.80;;;20.80;99.90;;;;;;6191333;23;20019;-93
2022/06/15 03:52:05;;;;;;;;;;;20.90;99.90;;;;;;6189019;23;20005;-93
2022/06/15 03:54:51;;;;;;;10.43;4.85;;;21.00;99.90;;;;;;6165467;23;19904;-92
2022/06/15 03:57:26;;;;;;;8.45;4.70;;;21.10;99.90;;;;;;6177611;23;20013;-92
2022/06/15 03:59:58;;;;;;;6.85;5.03;;;21.20;99.90;;;;;;6155307;23;20009;-92
2022/06/15 04:02:57;;;;;;;6.95;4.90;;;21.30;99.90;;;;;;6201712;23;20027;-93
2022/06/15 04:05:44;;;;;;;9.02;5.13;;;21.50;99.90;;;;;;6175413;23;20001;-93
2022/06/15 04:08:54;;;;;;;7.22;5.15;;;21.60;99.90;;;;;;6154400;23;20021;-92
2022/06/15 04:14:18;;;;;;;6.45;4.95;;;21.80;99.90;;;;;;6168445;23;20008;-92
2022/06/15 04:16:56;;;;;;;7.93;5.25;;;21.80;99.90;;;;;;6200102;23;20072;-92
2022/06/15 04:25:08;;;;;;;8.93;4.95;;;22.00;99.90;;;;;;6257234;22;20039;31
2022/06/15 04:27:37;;;;;;;7.88;5.07;;;22.10;99.90;;;;;;6223300;23;20103;-93
2022/06/15 04:30:27;;;;;;;9.00;5.07;;;22.20;99.90;;;;;;6209383;23;20031;-94
2022/06/15 04:36:12;;;;;;;8.48;4.80;;;22.90;99.90;;;;;;6265008;22;19924;-94
2022/06/15 04:39:25;;;;;;;7.60;4.75;;;24.00;99.90;;;;;;6244256;22;20053;-93
2022/06/15 04:42:44;;;;;;;7.93;4.97;;;25.80;99.90;;;;;;6236220;22;19984;-93
2022/06/15 04:46:00;;;;;;;6.85;4.55;;;27.30;99.90;;;;;;6117993;23;20013;-94
2022/06/15 04:49:00;;;;;;;11.77;5.57;;;29.10;99.90;;;;;;6094880;23;20097;-93
2022/06/15 04:51:43;;;;;;;8.10;5.07;;;30.40;99.90;;;;;;6155732;22;20334;-94
2022/06/15 04:54:13;;;;;;;5.20;4.70;;;30.90;99.90;;;;;;6238581;23;20076;-93
2022/06/15 04:56:44;;;;;;;7.38;5.07;;;30.60;99.90;;;;;;6212308;23;20012;-93
2022/06/15 04:59:15;;;;;;;7.78;4.82;;;30.50;99.90;;;;;;6219926;23;20012;-93
2022/06/15 05:01:48;;;;;;;7.20;4.30;;;30.20;99.90;;;;;;6163909;23;20016;-93
2022/06/15 05:04:20;;;;;;;5.88;4.55;;;29.70;99.90;;;;;;6181642;23;20009;-92
2022/06/15 05:06:50;;;;;;;5.82;5.00;;;29.80;99.90;;;;;;6206342;23;20036;-93
2022/06/15 05:09:17;;;;;;;5.28;4.78;;;30.40;99.90;;;;;;6181954;23;20052;-92
2022/06/15 05:11:53;;;;;;;5.93;5.25;;;30.90;99.90;;;;;;6177126;23;19989;-93
2022/06/15 05:14:27;;;;;;;6.63;5.28;;;31.30;99.90;;;;;;6175892;23;20088;-93
2022/06/15 05:16:55;;;;;;;9.85;5.80;;;31.50;99.90;;;;;;6204577;23;20005;-92
2022/06/15 05:19:29;;;;;;;6.57;5.45;;;31.80;99.90;;;;;;6175048;23;20080;-92
2022/06/15 05:22:11;;;;;;;6.40;5.32;;;32.20;99.90;;;;;;6171027;23;20015;-92
2022/06/15 05:27:32;;;;;;;7.40;4.90;;;31.90;99.90;;;;;;6268096;22;20082;-92
2022/06/15 05:31:08;;;;;;;6.47;5.10;;;31.60;99.90;;;;;;6207970;23;20016;-91
2022/06/15 05:33:58;;;;;;;7.72;5.63;;;30.90;99.90;;;;;;6106225;23;20006;-91
2022/06/15 05:36:35;;;;;;;6.32;5.40;;;32.00;99.90;;;;;;6106829;23;20040;-91
2022/06/15 05:39:14;;;;;;;8.75;5.20;;;32.60;99.90;;;;;;6105850;23;20010;-92
2022/06/15 05:41:44;;;;;;;8.07;4.60;;;31.80;99.90;;;;;;6079541;23;20038;-92
2022/06/15 05:44:19;;;;;;;6.00;4.80;;;31.60;99.90;;;;;;6111651;23;20478;-92
2022/06/15 05:46:54;;;;;;;9.27;6.00;;;31.60;99.90;;;;;;6110440;23;20476;-91
2022/06/15 05:49:30;;;;;;;9.68;5.75;;;32.20;99.90;;;;;;6107491;23;20101;-91
2022/06/15 05:51:57;;;;;;;6.25;5.75;;;32.70;99.90;;;;;;6103045;23;20013;-92
2022/06/15 05:54:27;;;;;;;5.93;5.40;;;33.00;99.90;;;;;;6078960;23;20006;-91
2022/06/15 05:56:53;;;;;;;10.20;5.25;;;32.40;99.90;;;;;;6102867;23;20451;-90
2022/06/15 05:59:20;;;;;;;8.80;5.22;;;31.70;99.90;;;;;;6102694;23;20006;-90
2022/06/15 06:01:46;;;;;;;9.32;5.53;;;31.60;99.90;;;;;;6078407;23;20432;-92
2022/06/15 06:04:16;;;;;;;8.63;5.55;;;31.30;99.90;;;;;;6105631;23;20029;-91
2022/06/15 06:06:43;;;;;;;6.97;6.10;;;31.00;99.90;;;;;;6119321;23;20017;-89
2022/06/15 06:09:12;;;;;;;9.50;6.38;;;31.30;99.90;;;;;;6141711;23;20024;-90
2022/06/15 06:11:39;;;;;;;10.70;6.35;;;31.30;99.90;;;;;;6198228;23;20008;-91
2022/06/15 06:14:06;;;;;;;6.55;5.95;;;31.50;99.90;;;;;;6197376;23;20091;-92
2022/06/15 06:16:34;;;;;;;9.95;7.22;;;31.80;99.90;;;;;;6198967;23;20008;-92
2022/06/15 06:19:01;;;;;;;7.05;6.55;;;32.30;99.90;;;;;;6202331;23;20330;-92
2022/06/15 06:21:27;;;;;;;7.18;6.70;;;32.40;99.90;;;;;;6199309;23;20004;-93
2022/06/15 06:23:53;;;;;;;7.72;6.97;;;32.90;99.90;;;;;;6199912;23;20008;-91
2022/06/15 06:26:26;;;;;;;8.43;7.70;;;32.90;99.90;;;;;;6197664;22;20048;-93
2022/06/15 06:28:53;;;;;;;10.13;7.75;;;32.90;99.90;;;;;;6198901;23;20047;-91
2022/06/15 06:31:20;;;;;;;15.02;7.68;;;33.00;99.90;;;;;;6202995;23;20004;-91
2022/06/15 06:33:48;;;;;;;8.40;7.55;;;33.30;99.90;;;;;;6200925;23;20028;-92
2022/06/15 06:36:31;;;;;;;8.55;7.82;;;32.70;99.90;;;;;;6197030;22;20422;-92
2022/06/15 06:39:06;;;;;;;14.50;7.57;;;32.10;99.90;;;;;;6196456;23;20062;-91
2022/06/15 06:41:36;;;;;;;8.05;7.43;;;32.00;99.90;;;;;;6196794;23;20034;-91
2022/06/15 06:44:04;;;;;;;7.82;7.22;;;32.30;99.90;;;;;;6196717;23;20014;-93
2022/06/15 06:46:35;;;;;;;8.40;7.70;;;32.20;99.90;;;;;;6196699;23;20012;-92
2022/06/15 06:49:05;;;;;;;8.35;7.72;;;32.40;99.90;;;;;;6196900;23;20028;-92
2022/06/15 06:51:32;;;;;;;9.40;7.70;;;32.40;99.90;;;;;;6197043;23;20014;-91
2022/06/15 06:53:59;;;;;;;8.73;7.80;;;31.90;99.90;;;;;;6197189;23;20008;-92
2022/06/15 06:56:25;;;;;;;8.20;7.53;;;31.90;99.90;;;;;;6197390;22;20079;-91
2022/06/15 06:58:51;;;;;;;8.85;8.05;;;32.30;99.90;;;;;;6197195;23;20091;-92
2022/06/15 07:01:17;;;;;;;8.75;7.97;;;32.90;99.90;;;;;;6197698;23;20008;-92
2022/06/15 07:03:44;;;;;;;8.77;8.18;;;33.40;99.90;;;;;;6197642;23;20004;-90
2022/06/15 07:06:11;;;;;;;8.88;8.18;;;33.60;99.90;;;;;;6197442;22;20008;-94
2022/06/15 07:08:38;;;;;;;9.30;8.50;;;33.50;99.90;;;;;;6203527;23;20012;-92
2022/06/15 07:11:13;;;;;;;9.73;8.63;;;33.30;99.90;;;;;;6195704;23;20001;-92
2022/06/15 07:13:40;;;;;;;9.02;8.40;;;33.30;99.90;;;;;;6197221;23;20014;-92
2022/06/15 07:16:09;;;;;;;13.27;8.98;;;33.20;99.90;;;;;;6196509;23;20003;-92
2022/06/15 07:18:35;;;;;;;9.60;8.68;;;33.60;99.90;;;;;;6198845;23;20012;-92
2022/06/15 07:21:03;;;;;;;9.80;9.07;;;34.10;99.90;;;;;;6201160;23;20012;-92
2022/06/15 07:23:30;;;;;;;10.45;9.40;;;34.70;99.90;;;;;;6196672;23;20095;-91
2022/06/15 07:25:57;;;;;;;9.80;8.90;;;34.60;99.90;;;;;;6192609;23;20458;-92
2022/06/15 07:28:23;;;;;;;9.82;9.13;;;33.90;99.90;;;;;;6196128;23;20016;-92
2022/06/15 07:30:50;;;;;;;10.52;9.73;;;34.10;99.90;;;;;;6196704;23;20032;-91
2022/06/15 07:33:17;;;;;;;9.70;8.82;;;34.40;99.90;;;;;;6179105;23;20008;-92
2022/06/15 07:35:43;;;;;;;9.45;8.75;;;34.20;99.90;;;;;;6200661;23;20007;-92
2022/06/15 07:38:10;;;;;;;10.43;9.45;;;33.90;99.90;;;;;;6201604;23;20008;-92
2022/06/15 07:40:36;;;;;;;9.85;8.93;;;33.70;99.90;;;;;;6196603;23;20007;-92
2022/06/15 07:43:03;;;;;;;10.13;9.02;;;33.40;99.90;;;;;;6197051;23;20015;-92
2022/06/15 07:45:30;;;;;;;9.48;8.68;;;33.90;99.90;;;;;;6196666;23;20087;-92
2022/06/15 07:50:43;;;;;;;9.90;9.02;;;33.80;99.90;;;;;;6221659;23;20012;-92
2022/06/15 07:53:13;;;;;;;10.02;9.23;;;34.10;99.90;;;;;;6196483;23;20035;-91
2022/06/15 07:55:43;;;;;;;10.52;9.45;;;33.60;99.90;;;;;;6196571;23;20024;-91
2022/06/15 07:58:12;;;;;;;10.43;9.70;;;33.50;99.90;;;;;;6197287;23;20453;-92
2022/06/15 08:00:42;;;;;;;9.98;9.10;;;33.10;99.90;;;;;;6197213;23;20011;-91
2022/06/15 08:03:10;;;;;;;9.93;9.25;;;33.40;99.90;;;;;;6196999;23;20012;-92
2022/06/15 08:05:42;;;;;;;9.55;8.90;;;34.10;99.90;;;;;;6195869;23;20091;-92
2022/06/15 08:08:13;;;;;;;9.57;8.93;;;34.20;99.90;;;;;;6195751;23;20023;-91
2022/06/15 08:10:40;;;;;;;9.45;8.77;;;33.60;99.90;;;;;;6194843;23;20012;-91
2022/06/15 08:13:08;;;;;;;9.48;8.70;;;33.30;99.90;;;;;;6195962;23;20008;-92
2022/06/15 08:15:35;;;;;;;8.95;8.27;;;32.60;99.90;;;;;;6195941;23;20004;-92
2022/06/15 08:18:08;;;;;;;9.18;8.57;;;32.60;99.90;;;;;;6160006;23;20459;-90
2022/06/15 08:20:42;;;;;;;13.25;8.77;;;32.70;99.90;;;;;;6192077;23;20029;-91
2022/06/15 08:23:12;;;;;;;8.65;8.13;;;32.80;99.90;;;;;;6189205;23;20041;-90
2022/06/15 08:25:46;;;;;;;8.70;8.15;;;32.70;99.90;;;;;;6185708;23;20550;-93
2022/06/15 08:28:18;;;;;;;8.90;8.20;;;32.40;99.90;;;;;;6172760;23;20021;-89
2022/06/15 08:30:47;;;;;;;8.93;8.05;;;32.10;99.90;;;;;;6178844;23;20009;-91
2022/06/15 08:33:13;;;;;;;9.52;8.77;;;32.40;99.90;;;;;;6175288;22;20023;-91
2022/06/15 08:35:40;;;;;;;9.32;8.57;;;32.60;99.90;;;;;;6254779;22;20037;-91
2022/06/15 08:38:10;;;;;;;9.45;8.60;;;32.90;99.90;;;;;;6223471;23;20095;-92
2022/06/15 08:41:04;;;;;;;9.55;8.85;;;32.60;99.90;;;;;;6197544;23;20008;-92
2022/06/15 08:43:49;;;;;;;;;;;32.90;99.90;;;;;;6185136;23;20000;-92
2022/06/15 08:46:39;;;;;;;9.07;8.20;;;32.80;99.90;;;;;;6201120;23;19991;-92
2022/06/15 08:49:29;;;;;;;8.93;8.18;;;32.80;99.90;;;;;;6201476;23;20050;-91
2022/06/15 08:52:05;;;;;;;10.40;8.60;;;32.90;99.90;;;;;;6208185;23;20008;-93
2022/06/15 08:54:41;;;;;;;8.65;8.00;;;32.90;99.90;;;;;;6215501;23;20090;-92
2022/06/15 08:57:12;;;;;;;9.65;8.80;;;32.30;99.90;;;;;;6215449;23;20031;-93
2022/06/15 08:59:46;;;;;;;9.35;8.50;;;32.40;99.90;;;;;;6208294;23;20016;-92
2022/06/15 09:02:49;;;;;;;8.45;7.82;;;32.60;99.90;;;;;;6208391;23;20016;-91
2022/06/15 09:05:25;;;;;;;9.57;8.88;;;32.40;99.90;;;;;;6207959;23;20008;-92
2022/06/15 09:08:03;;;;;;;9.55;8.63;;;32.70;99.90;;;;;;6207736;23;20046;-92
2022/06/15 09:10:49;;;;;;;8.73;8.10;;;32.70;99.90;;;;;;6208503;23;20008;-91
2022/06/15 09:13:25;;;;;;;9.35;8.30;;;32.70;99.90;;;;;;6232378;23;20303;-91
2022/06/15 09:16:14;;;;;;;8.75;8.00;;;32.50;99.90;;;;;;6206495;23;20004;-91
2022/06/15 09:18:50;;;;;;;8.80;7.97;;;32.50;99.90;;;;;;6205779;23;20057;-91
2022/06/15 09:21:32;;;;;;;9.93;7.85;;;32.60;99.90;;;;;;6207231;23;20008;-92
2022/06/15 09:24:11;;;;;;;9.20;7.93;;;32.50;99.90;;;;;;6232293;23;20338;-92
2022/06/15 09:26:46;;;;;;;8.85;7.95;;;32.40;99.90;;;;;;6207533;23;20039;-92
2022/06/15 09:29:45;;;;;;;8.43;7.70;;;32.30;99.90;;;;;;6204754;23;20020;-92
2022/06/15 09:32:30;;;;;;;8.95;8.20;;;31.90;99.90;;;;;;6231124;23;20008;-92
2022/06/15 09:35:18;;;;;;;11.02;8.48;;;31.60;99.90;;;;;;6205759;23;20134;-91
2022/06/15 09:37:51;;;;;;;9.35;7.90;;;31.80;99.90;;;;;;6204083;23;20008;-93
2022/06/15 09:40:18;;;;;;;15.27;7.93;;;31.60;99.90;;;;;;6197021;23;20004;-93
2022/06/15 09:43:11;;;;;;;8.10;7.30;;;31.50;99.90;;;;;;6195514;23;20087;-92
2022/06/15 09:46:11;;;;;;;9.75;7.55;;;31.60;99.90;;;;;;6225871;23;20011;-94
2022/06/15 09:48:56;;;;;;;7.82;7.20;;;31.60;99.90;;;;;;6206061;23;20020;-92
2022/06/15 09:51:42;;;;;;;8.30;7.70;;;30.90;99.90;;;;;;6197692;23;20333;-92
2022/06/15 09:54:21;;;;;;;7.97;7.47;;;31.00;99.90;;;;;;6195209;23;20062;-92
2022/06/15 09:56:52;;;;;;;7.90;7.40;;;30.70;99.90;;;;;;6195421;23;20077;-91
2022/06/15 09:59:21;;;;;;;8.25;7.47;;;31.00;99.90;;;;;;6196028;23;20011;-92
2022/06/15 10:01:48;;;;;;;8.57;7.88;;;31.00;99.90;;;;;;6195863;23;20083;-94
2022/06/15 10:04:20;;;;;;;8.45;7.75;;;30.90;99.90;;;;;;6220908;23;20008;-91
2022/06/15 10:06:53;;;;;;;8.75;7.97;;;30.90;99.90;;;;;;6197489;23;20012;-95
2022/06/15 10:09:29;;;;;;;8.83;8.03;;;31.00;99.90;;;;;;6196135;23;20016;-93
2022/06/15 10:15:11;;;;;;;8.48;7.65;;;30.70;99.90;;;;;;6226551;23;20031;-95
2022/06/15 10:17:45;;;;;;;8.80;7.95;;;30.40;99.90;;;;;;6202183;23;20402;-93
2022/06/15 10:20:35;;;;;;;8.73;7.93;;;30.50;99.90;;;;;;6199632;23;20012;-92
2022/06/15 10:23:23;;;;;;;8.95;8.30;;;30.50;99.90;;;;;;6222661;23;20251;-91
2022/06/15 10:25:55;;;;;;;9.23;8.43;;;30.30;99.90;;;;;;6197159;23;20066;-94
2022/06/15 10:29:45;;;;;;;15.65;8.95;;;30.30;99.90;;;;;;6202273;23;20019;-92
2022/06/15 10:47:07;;;;;;;8.52;7.85;;;30.70;99.90;;;;;;6251252;22;20032;-92
2022/06/15 11:43:55;;;;;;;9.50;8.30;;;30.40;99.90;;;;;;6157671;23;20084;-92
2022/06/15 11:46:52;;;;;;;8.88;8.15;;;30.20;99.90;;;;;;6132797;23;20010;-94
2022/06/15 11:49:34;;;;;;;9.25;8.35;;;30.30;99.90;;;;;;6121405;23;20017;-93
2022/06/15 11:52:57;;;;;;;10.15;8.40;;;30.60;99.90;;;;;;6197945;22;22053;-95
2022/06/15 11:56:25;;;;;;;8.98;8.27;;;30.40;99.90;;;;;;6141149;23;20033;-94
2022/06/15 12:36:07;;;;;;;8.70;7.90;;;29.80;99.90;;;;;;6279142;22;20074;-93
2022/06/15 12:45:32;;;;;;;8.95;8.23;;;30.20;99.90;;;;;;6093044;23;20037;-93
2022/06/15 12:48:40;;;;;;;9.13;8.32;;;29.80;99.90;;;;;;6103550;23;20077;-92
2022/06/15 13:09:23;;;;;;;9.35;8.73;;;29.80;99.90;;;;;;6254147;22;20039;-93
2022/06/15 13:18:56;;;;;;;9.77;8.35;;;29.50;99.90;;;;;;6216453;22;20032;-93
2022/06/15 13:22:30;;;;;;;;;;;;;;;;;;;;;
2022/06/15 13:35:59;;;;;;;9.48;8.20;;;29.30;99.90;;;;;;6271960;22;20020;-93
2022/06/15 13:38:31;;;;;;;11.25;7.82;;;29.60;99.90;;;;;;6207970;23;20009;-94
2022/06/15 13:44:18;;;;;;;7.60;6.90;;;29.60;99.90;;;;;;6255116;22;20035;-93
2022/06/15 13:47:25;;;;;;;7.93;7.32;;;29.50;99.90;;;;;;6184472;23;20021;-93
2022/06/15 13:58:25;;;;;;;9.00;8.10;;;29.50;99.90;;;;;;6262400;22;20028;-93
2022/06/15 14:01:59;;;;;;;9.15;8.25;;;29.30;99.90;;;;;;6206791;23;20011;-92
2022/06/15 14:04:40;;;;;;;8.02;7.40;;;29.30;99.90;;;;;;6225543;23;20012;-92
2022/06/15 14:07:36;;;;;;;9.30;8.18;;;29.30;99.90;;;;;;6202499;23;20012;-93
2022/06/15 14:10:46;;;;;;;8.40;7.40;;;29.30;99.90;;;;;;6200554;23;20012;-92
2022/06/15 14:13:32;;;;;;;8.05;7.47;;;29.30;99.90;;;;;;6200046;23;20038;-91
2022/06/15 14:16:31;;;;;;;8.80;8.02;;;29.40;99.90;;;;;;6199891;23;20004;-92
2022/06/15 14:19:31;;;;;;;8.70;8.00;;;29.50;99.90;;;;;;6199966;23;20044;-92
2022/06/15 14:22:22;;;;;;;8.48;7.63;;;29.40;99.90;;;;;;6179600;23;20009;-92
2022/06/15 14:25:18;;;;;;;9.35;8.43;;;29.30;99.90;;;;;;6246904;22;20067;-93
2022/06/15 15:08:50;;;;;;;9.27;8.68;;;29.40;99.90;;;;;;6260561;22;20028;-92
2022/06/15 15:11:33;;;;;;;8.93;8.40;;;29.40;99.90;;;;;;6226535;22;20010;-92
2022/06/15 15:14:14;;;;;;;9.23;8.52;;;29.10;99.90;;;;;;6226613;22;20012;-92
2022/06/15 15:16:54;;;;;;;9.63;8.93;;;28.90;99.90;;;;;;6226642;22;20396;-92
2022/06/15 15:19:41;;;;;;;9.27;8.57;;;28.80;99.90;;;;;;6196581;23;20012;-91
2022/06/15 15:22:23;;;;;;;9.10;8.30;;;28.80;99.90;;;;;;6196570;23;20008;-92
2022/06/15 15:25:00;;;;;;;8.77;8.07;;;28.80;99.90;;;;;;6196380;23;20054;-91
2022/06/15 15:37:34;;;;;;;9.43;8.63;;;29.00;99.90;;;;;;6221250;23;20311;-92
2022/06/15 15:39:14;;;;;;;9.48;8.82;;;29.10;99.90;;;;;;6220874;23;20389;-92
2022/06/15 15:41:42;;;;;;;9.35;8.70;;;28.80;99.90;;;;;;6196687;23;20008;-92
2022/06/15 15:44:10;;;;;;;8.98;8.38;;;28.80;99.90;;;;;;6195941;23;20088;-92
2022/06/15 15:46:36;;;;;;;9.10;8.15;;;28.60;99.90;;;;;;6196661;23;20008;-92
2022/06/15 15:49:03;;;;;;;9.70;8.75;;;28.60;99.90;;;;;;6196265;23;20138;-92
2022/06/15 15:51:30;;;;;;;8.50;8.07;;;28.70;99.90;;;;;;6196026;23;20553;-92
2022/06/15 15:53:57;;;;;;;8.70;8.10;;;28.70;99.90;;;;;;6196195;23;20311;-91
2022/06/15 15:56:24;;;;;;;7.90;7.32;;;28.40;99.90;;;;;;6197227;23;20008;-91
2022/06/15 15:58:50;;;;;;;9.38;8.45;;;28.40;99.90;;;;;;6206528;23;19996;-91
2022/06/15 16:01:18;;;;;;;9.00;8.13;;;28.50;99.90;;;;;;6198479;23;20012;-91
2022/06/15 16:03:44;;;;;;;8.30;7.50;;;28.50;99.90;;;;;;6205709;23;19996;-91
2022/06/15 16:06:11;;;;;;;8.68;7.88;;;28.60;99.90;;;;;;6205305;23;20011;-91
2022/06/15 16:08:37;;;;;;;9.35;8.57;;;28.40;99.90;;;;;;6205026;23;20012;-92
2022/06/15 16:11:04;;;;;;;8.60;7.88;;;28.50;99.90;;;;;;6205080;23;20008;-92
2022/06/15 16:13:30;;;;;;;8.23;7.60;;;28.50;99.90;;;;;;6206273;23;20014;-91
2022/06/15 16:16:02;;;;;;;8.52;7.93;;;28.30;99.90;;;;;;6206027;23;20008;-91
2022/06/15 16:18:32;;;;;;;8.00;7.40;;;28.30;99.90;;;;;;6205300;23;20032;-91
2022/06/15 16:20:59;;;;;;;8.45;7.75;;;28.40;99.90;;;;;;6205227;23;20342;-91
2022/06/15 16:23:30;;;;;;;7.80;7.30;;;28.50;99.90;;;;;;6205318;23;20004;-92
2022/06/15 16:25:56;;;;;;;8.30;7.72;;;28.40;99.90;;;;;;6209387;23;20015;-91
2022/06/15 16:28:23;;;;;;;9.52;8.82;;;28.20;99.90;;;;;;6213743;23;20019;-91
2022/06/15 16:30:49;;;;;;;9.40;8.60;;;28.20;99.90;;;;;;6206135;23;20050;-91
2022/06/15 16:33:18;;;;;;;8.65;8.02;;;28.10;99.90;;;;;;6198037;23;20012;-92
2022/06/15 16:35:45;;;;;;;8.57;7.90;;;28.10;99.90;;;;;;6229018;23;20000;-91
2022/06/15 16:38:14;;;;;;;8.73;8.02;;;28.00;99.90;;;;;;6202506;23;20008;-92
2022/06/15 16:40:42;;;;;;;8.90;8.25;;;28.10;99.90;;;;;;6205181;23;20003;-91
2022/06/15 16:43:09;;;;;;;9.02;8.38;;;27.90;99.90;;;;;;6204869;23;20540;-91
2022/06/15 16:45:36;;;;;;;11.85;7.82;;;27.70;99.90;;;;;;6205955;23;19996;-91
2022/06/15 16:48:04;;;;;;;8.48;7.88;;;27.80;99.90;;;;;;6203262;23;20036;-91
2022/06/15 16:50:32;;;;;;;8.10;7.30;;;27.80;99.90;;;;;;6205038;23;20442;-91
2022/06/15 16:52:59;;;;;;;8.18;7.45;;;27.80;99.90;;;;;;6204238;23;20008;-92
2022/06/15 16:55:43;;;;;;;8.20;7.68;;;27.80;99.90;;;;;;6202733;23;20007;-91
2022/06/15 16:58:16;;;;;;;8.27;7.57;;;27.70;99.90;;;;;;6202217;23;20047;-91
2022/06/15 17:00:43;;;;;;;9.27;8.05;;;27.70;99.90;;;;;;6204663;23;20008;-92
2022/06/15 17:03:10;;;;;;;12.07;9.77;;;27.60;99.90;;;;;;6207880;23;20012;-91
2022/06/15 17:05:38;;;;;;;10.45;9.35;;;27.50;99.90;;;;;;6209210;23;20008;-92
2022/06/15 17:08:04;;;;;;;9.05;8.30;;;27.40;99.90;;;;;;6183440;23;20034;-92
2022/06/15 17:10:31;;;;;;;8.38;7.78;;;27.30;99.90;;;;;;6208738;23;20426;-92
2022/06/15 17:12:59;;;;;;;9.05;8.23;;;27.30;99.90;;;;;;6227985;23;20047;-92
2022/06/15 17:15:26;;;;;;;9.05;8.25;;;27.20;99.90;;;;;;6173532;23;20012;-91
2022/06/15 17:17:53;;;;;;;8.13;7.30;;;27.20;99.90;;;;;;6148955;23;20048;-91
2022/06/15 17:20:19;;;;;;;10.35;7.53;;;27.10;99.90;;;;;;6148828;23;20009;-91
2022/06/15 17:22:47;;;;;;;9.88;8.60;;;27.10;99.90;;;;;;6150386;23;20009;-92
2022/06/15 17:25:14;;;;;;;10.95;9.15;;;27.00;99.90;;;;;;6151027;23;20072;-91
2022/06/15 17:27:41;;;;;;;9.20;8.30;;;26.90;99.90;;;;;;6148362;23;20049;-91